2007 BECKY (2007084S12157)


On this page: IBTrACS data - Map and Plots - Positions - Intensities - Original source data

Summary

Start Mar 24
End Mar 29
Basin SP
LMI 70 kt
Sources jtwc_sh
nadi
wellington
neumann
In WMO? Yes
Previous storm 2007 KARA (SI)
Previous in basin 2007 GEORGE (SP)
Concurrent storms 2007 KARA (SI)
2007 BECKY (SP)
2007 JAYA (SI)
Next in basin 2007 CLIFF (SP)
Next storm 2007 JAYA (SI)

top of page IBTrACS Data: File Access

top of page HURSAT Data: File Access

Image of storm

top of page Plots:

Map of storm track will not appear if FTP is down
Time series of cyclone Maximum Sustained Wind will not appear if FTP is down
Time series of cyclone Minimum Central Pressure will not appear if FTP is down

top of page Track Data:Position

jtwc_sh nadi wellington neumann
Date Lat Lon Lat Lon Lat Lon Lat Lon
2007-03-24 18:00:00 -11.7 157.0 -11.7 157.0
2007-03-25 00:00:00 -12.1 158.0 -12.0 157.5 -12.0 157.5 -12.1 158.0
2007-03-25 06:00:00 -12.4 159.0 -12.2 158.5 -12.2 158.5 -12.4 159.0
2007-03-25 12:00:00 -12.5 159.9 -12.3 159.4 -12.3 159.4 -12.5 159.9
2007-03-25 18:00:00 -12.5 160.7 -12.3 160.2 -12.3 160.2 -12.5 160.7
2007-03-26 00:00:00 -12.6 161.4 -12.6 161.1 -12.6 161.1 -12.6 161.4
2007-03-26 06:00:00 -12.7 162.2 -12.8 161.9 -12.8 161.9 -12.7 162.2
2007-03-26 12:00:00 -13.0 163.2 -13.1 163.0 -13.1 163.0 -13.0 163.2
2007-03-26 18:00:00 -13.6 164.2 -13.3 163.9 -13.3 163.9 -13.6 164.2
2007-03-27 00:00:00 -14.4 165.0 -14.1 165.0 -14.1 165.0 -14.4 165.0
2007-03-27 06:00:00 -15.2 165.8 -15.0 165.7 -15.0 165.7 -15.2 165.8
2007-03-27 12:00:00 -16.2 166.4 -16.0 166.3 -16.0 166.3 -16.2 166.4
2007-03-27 18:00:00 -17.2 167.1 -17.0 166.8 -17.0 166.8 -17.2 167.1
2007-03-28 00:00:00 -18.2 167.6 -18.0 167.4 -18.0 167.4 -18.2 167.6
2007-03-28 06:00:00 -19.1 168.0 -19.2 167.8 -19.2 167.8 -19.1 168.0
2007-03-28 12:00:00 -19.7 168.3 -19.9 168.1 -19.9 168.1 -19.7 168.3
2007-03-28 18:00:00 -20.3 168.3 -20.6 167.9 -20.6 167.9 -20.3 168.3
2007-03-29 00:00:00 -20.7 167.7 -20.8 167.6 -20.8 167.6 -20.7 167.7
2007-03-29 06:00:00 -20.7 167.3 -20.9 167.3 -20.9 167.3 -20.7 167.3
2007-03-29 12:00:00 -20.9 167.1 -20.9 167.1
2007-03-29 18:00:00 -21.2 166.8 -21.2 166.8

top of pageTrack Data:Intensity

jtwc_sh nadi wellington neumann
Date Wind Pres Wind Pres Wind Pres Wind Pres
2007-03-24 18:00:00 20. 1007. 20.
2007-03-25 00:00:00 20. 1004. 20. 1001. 20. 1001. 20.
2007-03-25 06:00:00 20. 1004. 20. 1001. 20. 1001. 20.
2007-03-25 12:00:00 25. 1002. 20. 1001. 20. 1001. 25.
2007-03-25 18:00:00 30. 1000. 25. 1000. 25. 1000. 30.
2007-03-26 00:00:00 30. 1000. 30. 997. 30. 997. 30.
2007-03-26 06:00:00 35. 996. 30. 997. 30. 997. 35.
2007-03-26 12:00:00 40. 993. 35. 995. 35. 995. 40.
2007-03-26 18:00:00 50. 985. 40. 990. 40. 990. 50.
2007-03-27 00:00:00 55. 982. 50. 985. 50. 985. 55.
2007-03-27 06:00:00 60. 978. 55. 980. 55. 980. 60.
2007-03-27 12:00:00 65. 974. 60. 975. 60. 975. 65.
2007-03-27 18:00:00 65. 974. 60. 975. 60. 975. 65.
2007-03-28 00:00:00 65. 974. 60. 975. 60. 975. 65.
2007-03-28 06:00:00 65. 974. 60. 975. 60. 975. 65.
2007-03-28 12:00:00 70. 970. 60. 975. 60. 975. 70.
2007-03-28 18:00:00 55. 982. 55. 980. 55. 980. 55.
2007-03-29 00:00:00 45. 989. 35. 995. 35. 995. 45.
2007-03-29 06:00:00 30. 1000. 997. 30. 997. 30.
2007-03-29 12:00:00 25. 1002. 25.
2007-03-29 18:00:00 25. 1002. 25.

top of page Links to source data

Source Source file Format
jtwc_sh bsh212007.txt ATCF
nadi RSMC-Nadi-2006-07-BT-Data.txt:Line=121:BECKY Text table
wellington TC_BT_2006-2009.csv:Line=57:BECKY Text table
neumann tracks.sh:Storm=1372:BECKY:21S:BSH212007 HURDAT